sensor_id;sensor_type;location;lat;lon;timestamp;temperature;humidity
41926;DHT22;27615;51.826;5.692;2022-12-18T00:00:42;-3.80;99.90
41926;DHT22;27615;51.826;5.692;2022-12-18T00:03:07;-3.70;99.90
41926;DHT22;27615;51.826;5.692;2022-12-18T00:05:33;-3.80;99.90
41926;DHT22;27615;51.826;5.692;2022-12-18T00:07:58;-3.80;99.90
41926;DHT22;27615;51.826;5.692;2022-12-18T00:10:24;-3.80;99.90
41926;DHT22;27615;51.826;5.692;2022-12-18T00:12:49;-3.80;99.90
41926;DHT22;27615;51.826;5.692;2022-12-18T00:15:15;-3.80;99.90
41926;DHT22;27615;51.826;5.692;2022-12-18T00:17:40;-3.90;99.90
41926;DHT22;27615;51.826;5.692;2022-12-18T00:20:07;-4.00;99.90
41926;DHT22;27615;51.826;5.692;2022-12-18T00:22:32;-4.00;99.90
41926;DHT22;27615;51.826;5.692;2022-12-18T00:24:58;-4.00;99.90
41926;DHT22;27615;51.826;5.692;2022-12-18T00:27:23;-4.00;99.90
41926;DHT22;27615;51.826;5.692;2022-12-18T00:29:49;-3.90;99.90
41926;DHT22;27615;51.826;5.692;2022-12-18T00:32:14;-4.00;99.90
41926;DHT22;27615;51.826;5.692;2022-12-18T00:34:40;-4.00;99.90
41926;DHT22;27615;51.826;5.692;2022-12-18T00:37:05;-4.00;99.90
41926;DHT22;27615;51.826;5.692;2022-12-18T00:39:31;-4.00;99.90
41926;DHT22;27615;51.826;5.692;2022-12-18T00:41:56;-4.10;99.90
41926;DHT22;27615;51.826;5.692;2022-12-18T00:44:41;-4.10;99.90
41926;DHT22;27615;51.826;5.692;2022-12-18T00:47:06;-4.10;99.90
41926;DHT22;27615;51.826;5.692;2022-12-18T00:49:32;-4.10;99.90
41926;DHT22;27615;51.826;5.692;2022-12-18T00:51:57;-4.10;99.90
41926;DHT22;27615;51.826;5.692;2022-12-18T00:54:23;-4.10;99.90
41926;DHT22;27615;51.826;5.692;2022-12-18T00:56:48;-4.10;99.90
41926;DHT22;27615;51.826;5.692;2022-12-18T00:59:14;-4.20;99.90
41926;DHT22;27615;51.826;5.692;2022-12-18T01:01:40;-4.20;99.90
41926;DHT22;27615;51.826;5.692;2022-12-18T01:04:06;-4.30;99.90
41926;DHT22;27615;51.826;5.692;2022-12-18T01:06:31;-4.30;99.90
41926;DHT22;27615;51.826;5.692;2022-12-18T01:08:57;-4.30;99.90
41926;DHT22;27615;51.826;5.692;2022-12-18T01:11:23;-4.40;99.90
41926;DHT22;27615;51.826;5.692;2022-12-18T01:13:48;-4.40;99.90
41926;DHT22;27615;51.826;5.692;2022-12-18T01:16:15;-4.50;99.90
41926;DHT22;27615;51.826;5.692;2022-12-18T01:18:41;-4.50;99.90
41926;DHT22;27615;51.826;5.692;2022-12-18T01:21:09;-4.50;99.90
41926;DHT22;27615;51.826;5.692;2022-12-18T01:23:34;-4.50;99.90
41926;DHT22;27615;51.826;5.692;2022-12-18T01:26:26;-4.60;99.90
41926;DHT22;27615;51.826;5.692;2022-12-18T01:28:55;-4.60;99.90
41926;DHT22;27615;51.826;5.692;2022-12-18T01:31:24;-4.70;99.90
41926;DHT22;27615;51.826;5.692;2022-12-18T01:33:51;-4.70;99.90
41926;DHT22;27615;51.826;5.692;2022-12-18T01:36:21;-4.70;99.90
41926;DHT22;27615;51.826;5.692;2022-12-18T01:38:48;-4.70;99.90
41926;DHT22;27615;51.826;5.692;2022-12-18T01:41:15;-4.80;99.90
41926;DHT22;27615;51.826;5.692;2022-12-18T01:43:53;-4.80;99.90
41926;DHT22;27615;51.826;5.692;2022-12-18T01:46:21;-4.80;99.90
41926;DHT22;27615;51.826;5.692;2022-12-18T01:48:58;-4.80;99.90
41926;DHT22;27615;51.826;5.692;2022-12-18T01:51:25;-4.80;99.90
41926;DHT22;27615;51.826;5.692;2022-12-18T01:53:52;-4.80;99.90
41926;DHT22;27615;51.826;5.692;2022-12-18T01:56:19;-4.80;99.90
41926;DHT22;27615;51.826;5.692;2022-12-18T01:59:04;-4.80;99.90
41926;DHT22;27615;51.826;5.692;2022-12-18T02:01:32;-4.70;99.90
41926;DHT22;27615;51.826;5.692;2022-12-18T02:04:24;-4.80;99.90
41926;DHT22;27615;51.826;5.692;2022-12-18T02:06:57;-4.80;99.90
41926;DHT22;27615;51.826;5.692;2022-12-18T02:09:31;-4.80;99.90
41926;DHT22;27615;51.826;5.692;2022-12-18T02:12:20;-4.80;99.90
41926;DHT22;27615;51.826;5.692;2022-12-18T02:14:58;-4.80;99.90
41926;DHT22;27615;51.826;5.692;2022-12-18T02:17:46;-4.80;99.90
41926;DHT22;27615;51.826;5.692;2022-12-18T02:20:18;-4.80;99.90
41926;DHT22;27615;51.826;5.692;2022-12-18T02:23:00;-4.90;99.90
41926;DHT22;27615;51.826;5.692;2022-12-18T02:28:28;-4.80;99.90
41926;DHT22;27615;51.826;5.692;2022-12-18T02:30:59;-4.80;99.90
41926;DHT22;27615;51.826;5.692;2022-12-18T02:33:27;-4.80;99.90
41926;DHT22;27615;51.826;5.692;2022-12-18T02:35:55;-4.80;99.90
41926;DHT22;27615;51.826;5.692;2022-12-18T02:38:23;-4.80;99.90
41926;DHT22;27615;51.826;5.692;2022-12-18T02:40:50;-4.80;99.90
41926;DHT22;27615;51.826;5.692;2022-12-18T02:43:17;-4.80;99.90
41926;DHT22;27615;51.826;5.692;2022-12-18T02:45:57;-4.80;99.90
41926;DHT22;27615;51.826;5.692;2022-12-18T02:48:31;-4.80;99.90
41926;DHT22;27615;51.826;5.692;2022-12-18T02:51:17;-4.80;99.90
41926;DHT22;27615;51.826;5.692;2022-12-18T02:54:05;-4.80;99.90
41926;DHT22;27615;51.826;5.692;2022-12-18T02:56:52;-4.80;99.90
41926;DHT22;27615;51.826;5.692;2022-12-18T02:59:26;-4.90;99.90
41926;DHT22;27615;51.826;5.692;2022-12-18T03:01:57;-4.90;99.90
41926;DHT22;27615;51.826;5.692;2022-12-18T03:04:30;-4.90;99.90
41926;DHT22;27615;51.826;5.692;2022-12-18T03:07:04;-4.90;99.90
41926;DHT22;27615;51.826;5.692;2022-12-18T03:09:42;-4.90;99.90
41926;DHT22;27615;51.826;5.692;2022-12-18T03:12:21;-4.90;99.90
41926;DHT22;27615;51.826;5.692;2022-12-18T03:15:02;-4.80;99.90
41926;DHT22;27615;51.826;5.692;2022-12-18T03:17:31;-4.80;99.90
41926;DHT22;27615;51.826;5.692;2022-12-18T03:20:00;-4.90;99.90
41926;DHT22;27615;51.826;5.692;2022-12-18T03:22:30;-4.80;99.90
41926;DHT22;27615;51.826;5.692;2022-12-18T03:24:58;-4.80;99.90
41926;DHT22;27615;51.826;5.692;2022-12-18T03:27:28;-4.80;99.90
41926;DHT22;27615;51.826;5.692;2022-12-18T03:30:04;-4.80;99.90
41926;DHT22;27615;51.826;5.692;2022-12-18T03:35:28;-4.80;99.90
41926;DHT22;27615;51.826;5.692;2022-12-18T03:37:53;-4.80;99.90
41926;DHT22;27615;51.826;5.692;2022-12-18T03:40:29;-4.80;99.90
41926;DHT22;27615;51.826;5.692;2022-12-18T03:43:08;-4.80;99.90
41926;DHT22;27615;51.826;5.692;2022-12-18T03:45:42;-4.80;99.90
41926;DHT22;27615;51.826;5.692;2022-12-18T03:48:31;-4.90;99.90
41926;DHT22;27615;51.826;5.692;2022-12-18T03:51:24;-4.90;99.90
41926;DHT22;27615;51.826;5.692;2022-12-18T03:54:00;-5.00;99.90
41926;DHT22;27615;51.826;5.692;2022-12-18T03:56:29;-5.00;99.90
41926;DHT22;27615;51.826;5.692;2022-12-18T03:58:57;-5.00;99.90
41926;DHT22;27615;51.826;5.692;2022-12-18T04:01:31;-5.00;99.90
41926;DHT22;27615;51.826;5.692;2022-12-18T04:04:00;-5.00;99.90
41926;DHT22;27615;51.826;5.692;2022-12-18T04:06:26;-5.00;99.90
41926;DHT22;27615;51.826;5.692;2022-12-18T04:08:53;-5.00;99.90
41926;DHT22;27615;51.826;5.692;2022-12-18T04:11:19;-5.00;99.90
41926;DHT22;27615;51.826;5.692;2022-12-18T04:13:44;-5.00;99.90
41926;DHT22;27615;51.826;5.692;2022-12-18T04:16:10;-4.90;99.90
41926;DHT22;27615;51.826;5.692;2022-12-18T04:18:36;-4.90;99.90
41926;DHT22;27615;51.826;5.692;2022-12-18T04:21:02;-4.90;99.90
41926;DHT22;27615;51.826;5.692;2022-12-18T04:23:28;-4.90;99.90
41926;DHT22;27615;51.826;5.692;2022-12-18T04:25:54;-4.90;99.90
41926;DHT22;27615;51.826;5.692;2022-12-18T04:28:20;-4.90;99.90
41926;DHT22;27615;51.826;5.692;2022-12-18T04:30:48;-4.90;99.90
41926;DHT22;27615;51.826;5.692;2022-12-18T04:33:14;-4.80;99.90
41926;DHT22;27615;51.826;5.692;2022-12-18T04:35:43;-4.90;99.90
41926;DHT22;27615;51.826;5.692;2022-12-18T04:38:08;-4.80;99.90
41926;DHT22;27615;51.826;5.692;2022-12-18T04:40:36;-4.80;99.90
41926;DHT22;27615;51.826;5.692;2022-12-18T04:43:02;-4.80;99.90
41926;DHT22;27615;51.826;5.692;2022-12-18T04:45:28;-4.80;99.90
41926;DHT22;27615;51.826;5.692;2022-12-18T04:47:53;-4.80;99.90
41926;DHT22;27615;51.826;5.692;2022-12-18T04:50:19;-4.70;99.90
41926;DHT22;27615;51.826;5.692;2022-12-18T04:52:44;-4.70;99.90
41926;DHT22;27615;51.826;5.692;2022-12-18T04:55:10;-4.70;99.90
41926;DHT22;27615;51.826;5.692;2022-12-18T04:57:35;-4.70;99.90
41926;DHT22;27615;51.826;5.692;2022-12-18T05:00:02;-4.70;99.90
41926;DHT22;27615;51.826;5.692;2022-12-18T05:02:28;-4.70;99.90
41926;DHT22;27615;51.826;5.692;2022-12-18T05:04:53;-4.70;99.90
41926;DHT22;27615;51.826;5.692;2022-12-18T05:07:19;-4.70;99.90
41926;DHT22;27615;51.826;5.692;2022-12-18T05:09:44;-4.70;99.90
41926;DHT22;27615;51.826;5.692;2022-12-18T05:12:09;-4.70;99.90
41926;DHT22;27615;51.826;5.692;2022-12-18T05:14:35;-4.70;99.90
41926;DHT22;27615;51.826;5.692;2022-12-18T05:17:01;-4.70;99.90
41926;DHT22;27615;51.826;5.692;2022-12-18T05:19:26;-4.70;99.90
41926;DHT22;27615;51.826;5.692;2022-12-18T05:21:52;-4.70;99.90
41926;DHT22;27615;51.826;5.692;2022-12-18T05:24:17;-4.70;99.90
41926;DHT22;27615;51.826;5.692;2022-12-18T05:26:43;-4.70;99.90
41926;DHT22;27615;51.826;5.692;2022-12-18T05:29:08;-4.70;99.90
41926;DHT22;27615;51.826;5.692;2022-12-18T05:31:37;-4.70;99.90
41926;DHT22;27615;51.826;5.692;2022-12-18T05:34:03;-4.70;99.90
41926;DHT22;27615;51.826;5.692;2022-12-18T05:36:29;-4.70;99.90
41926;DHT22;27615;51.826;5.692;2022-12-18T05:38:54;-4.70;99.90
41926;DHT22;27615;51.826;5.692;2022-12-18T05:41:20;-4.70;99.90
41926;DHT22;27615;51.826;5.692;2022-12-18T05:43:45;-4.70;99.90
41926;DHT22;27615;51.826;5.692;2022-12-18T05:46:15;-4.70;99.90
41926;DHT22;27615;51.826;5.692;2022-12-18T05:48:41;-4.70;99.90
41926;DHT22;27615;51.826;5.692;2022-12-18T05:51:15;-4.70;99.90
41926;DHT22;27615;51.826;5.692;2022-12-18T05:53:41;-4.60;99.90
41926;DHT22;27615;51.826;5.692;2022-12-18T05:56:10;-4.70;99.90
41926;DHT22;27615;51.826;5.692;2022-12-18T05:58:36;-4.60;99.90
41926;DHT22;27615;51.826;5.692;2022-12-18T06:01:13;-4.60;99.90
41926;DHT22;27615;51.826;5.692;2022-12-18T06:03:39;-4.60;99.90
41926;DHT22;27615;51.826;5.692;2022-12-18T06:06:13;-4.60;99.90
41926;DHT22;27615;51.826;5.692;2022-12-18T06:08:39;-4.60;99.90
41926;DHT22;27615;51.826;5.692;2022-12-18T06:11:04;-4.60;99.90
41926;DHT22;27615;51.826;5.692;2022-12-18T06:13:30;-4.60;99.90
41926;DHT22;27615;51.826;5.692;2022-12-18T06:15:56;-4.60;99.90
41926;DHT22;27615;51.826;5.692;2022-12-18T06:18:21;-4.60;99.90
41926;DHT22;27615;51.826;5.692;2022-12-18T06:20:55;-4.50;99.90
41926;DHT22;27615;51.826;5.692;2022-12-18T06:23:21;-4.60;99.90
41926;DHT22;27615;51.826;5.692;2022-12-18T06:25:47;-4.50;99.90
41926;DHT22;27615;51.826;5.692;2022-12-18T06:28:12;-4.50;99.90
41926;DHT22;27615;51.826;5.692;2022-12-18T06:30:38;-4.60;99.90
41926;DHT22;27615;51.826;5.692;2022-12-18T06:33:03;-4.50;99.90
41926;DHT22;27615;51.826;5.692;2022-12-18T06:35:29;-4.50;99.90
41926;DHT22;27615;51.826;5.692;2022-12-18T06:37:54;-4.50;99.90
41926;DHT22;27615;51.826;5.692;2022-12-18T06:40:20;-4.50;99.90
41926;DHT22;27615;51.826;5.692;2022-12-18T06:42:46;-4.50;99.90
41926;DHT22;27615;51.826;5.692;2022-12-18T06:45:16;-4.40;99.90
41926;DHT22;27615;51.826;5.692;2022-12-18T06:47:42;-4.50;99.90
41926;DHT22;27615;51.826;5.692;2022-12-18T06:50:07;-4.50;99.90
41926;DHT22;27615;51.826;5.692;2022-12-18T06:52:33;-4.40;99.90
41926;DHT22;27615;51.826;5.692;2022-12-18T06:54:59;-4.40;99.90
41926;DHT22;27615;51.826;5.692;2022-12-18T06:57:25;-4.40;99.90
41926;DHT22;27615;51.826;5.692;2022-12-18T06:59:50;-4.40;99.90
41926;DHT22;27615;51.826;5.692;2022-12-18T07:02:16;-4.40;99.90
41926;DHT22;27615;51.826;5.692;2022-12-18T07:04:41;-4.40;99.90
41926;DHT22;27615;51.826;5.692;2022-12-18T07:07:07;-4.30;99.90
41926;DHT22;27615;51.826;5.692;2022-12-18T07:09:32;-4.30;99.90
41926;DHT22;27615;51.826;5.692;2022-12-18T07:11:58;-4.30;99.90
41926;DHT22;27615;51.826;5.692;2022-12-18T07:14:23;-4.20;99.90
41926;DHT22;27615;51.826;5.692;2022-12-18T07:16:49;-4.20;99.90
41926;DHT22;27615;51.826;5.692;2022-12-18T07:19:14;-4.20;99.90
41926;DHT22;27615;51.826;5.692;2022-12-18T07:21:40;-4.10;99.90
41926;DHT22;27615;51.826;5.692;2022-12-18T07:24:06;-4.10;99.90
41926;DHT22;27615;51.826;5.692;2022-12-18T07:26:31;-4.10;99.90
41926;DHT22;27615;51.826;5.692;2022-12-18T07:28:57;-4.10;99.90
41926;DHT22;27615;51.826;5.692;2022-12-18T07:31:23;-4.10;99.90
41926;DHT22;27615;51.826;5.692;2022-12-18T07:33:50;-4.10;99.90
41926;DHT22;27615;51.826;5.692;2022-12-18T07:36:16;-4.10;99.90
41926;DHT22;27615;51.826;5.692;2022-12-18T07:38:42;-4.10;99.90
41926;DHT22;27615;51.826;5.692;2022-12-18T07:41:11;-4.00;99.90
41926;DHT22;27615;51.826;5.692;2022-12-18T07:43:37;-4.00;99.90
41926;DHT22;27615;51.826;5.692;2022-12-18T07:46:03;-4.00;99.90
41926;DHT22;27615;51.826;5.692;2022-12-18T07:48:29;-4.00;99.90
41926;DHT22;27615;51.826;5.692;2022-12-18T07:51:03;-4.00;99.90
41926;DHT22;27615;51.826;5.692;2022-12-18T07:53:29;-3.90;99.90
41926;DHT22;27615;51.826;5.692;2022-12-18T07:56:01;-3.90;99.90
41926;DHT22;27615;51.826;5.692;2022-12-18T07:58:28;-3.90;99.90
41926;DHT22;27615;51.826;5.692;2022-12-18T08:00:54;-3.90;99.90
41926;DHT22;27615;51.826;5.692;2022-12-18T08:03:19;-3.90;99.90
41926;DHT22;27615;51.826;5.692;2022-12-18T08:05:45;-3.90;99.90
41926;DHT22;27615;51.826;5.692;2022-12-18T08:08:11;-3.80;99.90
41926;DHT22;27615;51.826;5.692;2022-12-18T08:10:37;-3.80;99.90
41926;DHT22;27615;51.826;5.692;2022-12-18T08:13:03;-3.70;99.90
41926;DHT22;27615;51.826;5.692;2022-12-18T08:15:29;-3.70;99.90
41926;DHT22;27615;51.826;5.692;2022-12-18T08:17:56;-3.60;99.90
41926;DHT22;27615;51.826;5.692;2022-12-18T08:20:22;-3.60;99.90
41926;DHT22;27615;51.826;5.692;2022-12-18T08:22:47;-3.50;99.90
41926;DHT22;27615;51.826;5.692;2022-12-18T08:25:13;-3.50;99.90
41926;DHT22;27615;51.826;5.692;2022-12-18T08:27:39;-3.40;99.90
41926;DHT22;27615;51.826;5.692;2022-12-18T08:30:05;-3.40;99.90
41926;DHT22;27615;51.826;5.692;2022-12-18T08:32:31;-3.40;99.90
41926;DHT22;27615;51.826;5.692;2022-12-18T08:34:58;-3.30;99.90
41926;DHT22;27615;51.826;5.692;2022-12-18T08:37:23;-3.20;99.90
41926;DHT22;27615;51.826;5.692;2022-12-18T08:39:49;-3.20;99.90
41926;DHT22;27615;51.826;5.692;2022-12-18T08:42:14;-3.20;99.90
41926;DHT22;27615;51.826;5.692;2022-12-18T08:44:59;-3.20;99.90
41926;DHT22;27615;51.826;5.692;2022-12-18T08:47:24;-3.10;99.90
41926;DHT22;27615;51.826;5.692;2022-12-18T08:49:51;-3.10;99.90
41926;DHT22;27615;51.826;5.692;2022-12-18T08:52:17;-3.00;99.90
41926;DHT22;27615;51.826;5.692;2022-12-18T08:54:42;-2.90;99.90
41926;DHT22;27615;51.826;5.692;2022-12-18T08:57:08;-2.90;99.90
41926;DHT22;27615;51.826;5.692;2022-12-18T08:59:33;-2.90;99.90
41926;DHT22;27615;51.826;5.692;2022-12-18T09:01:59;-2.80;99.90
41926;DHT22;27615;51.826;5.692;2022-12-18T09:04:24;-2.80;99.90
41926;DHT22;27615;51.826;5.692;2022-12-18T09:06:50;-2.70;99.90
41926;DHT22;27615;51.826;5.692;2022-12-18T09:09:15;-2.60;99.90
41926;DHT22;27615;51.826;5.692;2022-12-18T09:11:41;-2.50;99.90
41926;DHT22;27615;51.826;5.692;2022-12-18T09:14:07;-2.50;99.90
41926;DHT22;27615;51.826;5.692;2022-12-18T09:16:34;-2.40;99.90
41926;DHT22;27615;51.826;5.692;2022-12-18T09:19:01;-2.40;99.90
41926;DHT22;27615;51.826;5.692;2022-12-18T09:21:29;-2.30;99.90
41926;DHT22;27615;51.826;5.692;2022-12-18T09:23:55;-2.20;99.90
41926;DHT22;27615;51.826;5.692;2022-12-18T09:26:22;-2.20;99.90
41926;DHT22;27615;51.826;5.692;2022-12-18T09:28:48;-2.10;99.90
41926;DHT22;27615;51.826;5.692;2022-12-18T09:31:14;-2.00;99.90
41926;DHT22;27615;51.826;5.692;2022-12-18T09:33:40;-2.00;99.90
41926;DHT22;27615;51.826;5.692;2022-12-18T09:36:10;-1.90;99.90
41926;DHT22;27615;51.826;5.692;2022-12-18T09:38:42;-1.90;99.90
41926;DHT22;27615;51.826;5.692;2022-12-18T09:43:59;-1.70;99.90
41926;DHT22;27615;51.826;5.692;2022-12-18T09:46:32;-1.70;99.90
41926;DHT22;27615;51.826;5.692;2022-12-18T09:49:05;-1.70;99.90
41926;DHT22;27615;51.826;5.692;2022-12-18T09:54:30;-1.60;99.90
41926;DHT22;27615;51.826;5.692;2022-12-18T09:56:57;-1.50;99.90
41926;DHT22;27615;51.826;5.692;2022-12-18T09:59:26;-1.50;99.90
41926;DHT22;27615;51.826;5.692;2022-12-18T10:01:53;-1.50;99.90
41926;DHT22;27615;51.826;5.692;2022-12-18T10:04:18;-1.50;99.90
41926;DHT22;27615;51.826;5.692;2022-12-18T10:07:13;-1.50;99.90
41926;DHT22;27615;51.826;5.692;2022-12-18T10:12:26;-1.30;99.90
41926;DHT22;27615;51.826;5.692;2022-12-18T10:15:06;-1.20;99.90
41926;DHT22;27615;51.826;5.692;2022-12-18T10:20:17;-1.10;99.90
41926;DHT22;27615;51.826;5.692;2022-12-18T10:22:55;-1.00;99.90
41926;DHT22;27615;51.826;5.692;2022-12-18T10:27:57;-0.90;99.90
41926;DHT22;27615;51.826;5.692;2022-12-18T10:30:25;-0.90;99.90
41926;DHT22;27615;51.826;5.692;2022-12-18T10:32:51;-0.90;99.90
41926;DHT22;27615;51.826;5.692;2022-12-18T10:35:24;-0.90;99.90
41926;DHT22;27615;51.826;5.692;2022-12-18T10:38:05;-0.90;99.90
41926;DHT22;27615;51.826;5.692;2022-12-18T10:40:32;-0.90;99.90
41926;DHT22;27615;51.826;5.692;2022-12-18T10:43:27;-0.90;99.90
41926;DHT22;27615;51.826;5.692;2022-12-18T10:48:56;-0.90;99.90
41926;DHT22;27615;51.826;5.692;2022-12-18T10:51:27;-0.90;99.90
41926;DHT22;27615;51.826;5.692;2022-12-18T10:54:17;-0.90;99.90
41926;DHT22;27615;51.826;5.692;2022-12-18T10:56:43;-0.90;99.90
41926;DHT22;27615;51.826;5.692;2022-12-18T10:59:17;-0.90;99.90
41926;DHT22;27615;51.826;5.692;2022-12-18T11:01:58;-0.80;99.90
41926;DHT22;27615;51.826;5.692;2022-12-18T11:04:29;-0.80;99.90
41926;DHT22;27615;51.826;5.692;2022-12-18T11:07:07;-0.80;99.90
41926;DHT22;27615;51.826;5.692;2022-12-18T11:09:35;-0.70;99.90
41926;DHT22;27615;51.826;5.692;2022-12-18T11:12:24;-0.70;99.90
41926;DHT22;27615;51.826;5.692;2022-12-18T11:14:53;-0.70;99.90
41926;DHT22;27615;51.826;5.692;2022-12-18T11:17:33;-0.60;99.90
41926;DHT22;27615;51.826;5.692;2022-12-18T11:20:18;-0.60;99.90
41926;DHT22;27615;51.826;5.692;2022-12-18T11:22:58;-0.60;99.90
41926;DHT22;27615;51.826;5.692;2022-12-18T11:25:27;-0.50;99.90
41926;DHT22;27615;51.826;5.692;2022-12-18T11:30:32;-0.40;99.90
41926;DHT22;27615;51.826;5.692;2022-12-18T11:33:20;-0.40;99.90
41926;DHT22;27615;51.826;5.692;2022-12-18T11:35:58;-0.30;99.90
41926;DHT22;27615;51.826;5.692;2022-12-18T11:38:33;-0.30;99.90
41926;DHT22;27615;51.826;5.692;2022-12-18T11:44:26;-0.20;99.60
41926;DHT22;27615;51.826;5.692;2022-12-18T11:49:58;-0.10;99.30
41926;DHT22;27615;51.826;5.692;2022-12-18T11:52:31;-0.20;99.10
41926;DHT22;27615;51.826;5.692;2022-12-18T11:55:01;-0.10;99.40
41926;DHT22;27615;51.826;5.692;2022-12-18T11:57:55;-0.10;99.30
41926;DHT22;27615;51.826;5.692;2022-12-18T12:00:25;-0.10;99.20
41926;DHT22;27615;51.826;5.692;2022-12-18T12:05:53;-0.10;99.00
41926;DHT22;27615;51.826;5.692;2022-12-18T12:13:54;0.00;98.60
41926;DHT22;27615;51.826;5.692;2022-12-18T12:16:25;0.00;98.60
41926;DHT22;27615;51.826;5.692;2022-12-18T12:21:49;0.10;98.30
41926;DHT22;27615;51.826;5.692;2022-12-18T12:27:25;0.10;98.30
41926;DHT22;27615;51.826;5.692;2022-12-18T12:30:07;0.20;98.10
41926;DHT22;27615;51.826;5.692;2022-12-18T12:38:35;0.20;98.30
41926;DHT22;27615;51.826;5.692;2022-12-18T12:41:09;0.20;98.00
41926;DHT22;27615;51.826;5.692;2022-12-18T12:43:58;0.20;98.00
41926;DHT22;27615;51.826;5.692;2022-12-18T12:46:28;0.20;98.00
41926;DHT22;27615;51.826;5.692;2022-12-18T12:49:01;0.20;98.10
41926;DHT22;27615;51.826;5.692;2022-12-18T12:51:33;0.30;98.10
41926;DHT22;27615;51.826;5.692;2022-12-18T12:54:05;0.30;97.90
41926;DHT22;27615;51.826;5.692;2022-12-18T12:56:51;0.30;97.90
41926;DHT22;27615;51.826;5.692;2022-12-18T13:04:57;0.30;97.70
41926;DHT22;27615;51.826;5.692;2022-12-18T13:07:35;0.30;97.50
41926;DHT22;27615;51.826;5.692;2022-12-18T13:12:56;0.30;96.90
41926;DHT22;27615;51.826;5.692;2022-12-18T13:18:29;0.30;96.60
41926;DHT22;27615;51.826;5.692;2022-12-18T13:34:25;0.40;96.00
41926;DHT22;27615;51.826;5.692;2022-12-18T13:36:53;0.40;96.00
41926;DHT22;27615;51.826;5.692;2022-12-18T13:44:40;0.40;95.70
41926;DHT22;27615;51.826;5.692;2022-12-18T13:47:31;0.40;95.60
41926;DHT22;27615;51.826;5.692;2022-12-18T13:49:57;0.40;95.50
41926;DHT22;27615;51.826;5.692;2022-12-18T13:52:33;0.40;95.60
41926;DHT22;27615;51.826;5.692;2022-12-18T13:55:06;0.40;95.60
41926;DHT22;27615;51.826;5.692;2022-12-18T13:57:37;0.40;95.60
41926;DHT22;27615;51.826;5.692;2022-12-18T14:00:25;0.40;95.60
41926;DHT22;27615;51.826;5.692;2022-12-18T14:03:01;0.40;95.50
41926;DHT22;27615;51.826;5.692;2022-12-18T14:05:32;0.50;95.50
41926;DHT22;27615;51.826;5.692;2022-12-18T14:08:05;0.50;95.50
41926;DHT22;27615;51.826;5.692;2022-12-18T14:10:42;0.50;95.40
41926;DHT22;27615;51.826;5.692;2022-12-18T14:13:10;0.50;95.10
41926;DHT22;27615;51.826;5.692;2022-12-18T14:15:44;0.50;95.00
41926;DHT22;27615;51.826;5.692;2022-12-18T14:18:19;0.50;95.10
41926;DHT22;27615;51.826;5.692;2022-12-18T14:20:47;0.50;95.00
41926;DHT22;27615;51.826;5.692;2022-12-18T14:23:38;0.50;95.20
41926;DHT22;27615;51.826;5.692;2022-12-18T14:26:32;0.50;95.00
41926;DHT22;27615;51.826;5.692;2022-12-18T14:29:24;0.50;95.10
41926;DHT22;27615;51.826;5.692;2022-12-18T14:32:16;0.50;94.90
41926;DHT22;27615;51.826;5.692;2022-12-18T14:34:52;0.50;95.00
41926;DHT22;27615;51.826;5.692;2022-12-18T14:37:24;0.40;94.90
41926;DHT22;27615;51.826;5.692;2022-12-18T14:42:23;0.40;94.90
41926;DHT22;27615;51.826;5.692;2022-12-18T14:47:55;0.40;95.00
41926;DHT22;27615;51.826;5.692;2022-12-18T14:50:21;0.30;95.30
41926;DHT22;27615;51.826;5.692;2022-12-18T14:52:46;0.40;95.30
41926;DHT22;27615;51.826;5.692;2022-12-18T14:55:18;0.40;95.30
41926;DHT22;27615;51.826;5.692;2022-12-18T14:57:46;0.40;95.30
41926;DHT22;27615;51.826;5.692;2022-12-18T15:00:17;0.30;95.30
41926;DHT22;27615;51.826;5.692;2022-12-18T15:02:54;0.30;95.40
41926;DHT22;27615;51.826;5.692;2022-12-18T15:05:26;0.30;95.50
41926;DHT22;27615;51.826;5.692;2022-12-18T15:07:54;0.40;95.20
41926;DHT22;27615;51.826;5.692;2022-12-18T15:10:28;0.30;95.20
41926;DHT22;27615;51.826;5.692;2022-12-18T15:18:21;0.30;95.20
41926;DHT22;27615;51.826;5.692;2022-12-18T15:23:47;0.30;95.20
41926;DHT22;27615;51.826;5.692;2022-12-18T15:26:07;0.30;95.50
41926;DHT22;27615;51.826;5.692;2022-12-18T15:28:51;0.20;95.50
41926;DHT22;27615;51.826;5.692;2022-12-18T15:31:31;0.20;95.40
41926;DHT22;27615;51.826;5.692;2022-12-18T15:36:24;0.20;95.50
41926;DHT22;27615;51.826;5.692;2022-12-18T15:38:51;0.20;95.60
41926;DHT22;27615;51.826;5.692;2022-12-18T15:41:19;0.20;95.60
41926;DHT22;27615;51.826;5.692;2022-12-18T15:43:46;0.20;95.60
41926;DHT22;27615;51.826;5.692;2022-12-18T15:46:14;0.10;95.50
41926;DHT22;27615;51.826;5.692;2022-12-18T15:48:44;0.20;95.70
41926;DHT22;27615;51.826;5.692;2022-12-18T15:51:18;0.10;96.00
41926;DHT22;27615;51.826;5.692;2022-12-18T15:53:44;0.10;95.70
41926;DHT22;27615;51.826;5.692;2022-12-18T15:56:11;0.10;95.80
41926;DHT22;27615;51.826;5.692;2022-12-18T15:58:55;0.10;95.60
41926;DHT22;27615;51.826;5.692;2022-12-18T16:01:23;0.10;95.80
41926;DHT22;27615;51.826;5.692;2022-12-18T16:03:49;0.10;95.90
41926;DHT22;27615;51.826;5.692;2022-12-18T16:06:15;0.10;95.90
41926;DHT22;27615;51.826;5.692;2022-12-18T16:08:40;0.10;95.80
41926;DHT22;27615;51.826;5.692;2022-12-18T16:11:08;0.10;95.90
41926;DHT22;27615;51.826;5.692;2022-12-18T16:13:41;0.10;95.90
41926;DHT22;27615;51.826;5.692;2022-12-18T16:16:08;0.10;95.80
41926;DHT22;27615;51.826;5.692;2022-12-18T16:18:33;0.10;95.80
41926;DHT22;27615;51.826;5.692;2022-12-18T16:20:59;0.00;96.10
41926;DHT22;27615;51.826;5.692;2022-12-18T16:23:24;0.00;95.90
41926;DHT22;27615;51.826;5.692;2022-12-18T16:25:50;0.00;96.10
41926;DHT22;27615;51.826;5.692;2022-12-18T16:28:16;0.00;96.00
41926;DHT22;27615;51.826;5.692;2022-12-18T16:30:42;0.00;96.00
41926;DHT22;27615;51.826;5.692;2022-12-18T16:33:09;0.00;96.20
41926;DHT22;27615;51.826;5.692;2022-12-18T16:35:35;0.00;96.20
41926;DHT22;27615;51.826;5.692;2022-12-18T16:38:02;0.00;96.20
41926;DHT22;27615;51.826;5.692;2022-12-18T16:40:27;0.00;96.10
41926;DHT22;27615;51.826;5.692;2022-12-18T16:42:53;0.00;96.20
41926;DHT22;27615;51.826;5.692;2022-12-18T16:45:18;-0.10;96.20
41926;DHT22;27615;51.826;5.692;2022-12-18T16:47:45;0.00;96.30
41926;DHT22;27615;51.826;5.692;2022-12-18T16:50:11;0.00;96.40
41926;DHT22;27615;51.826;5.692;2022-12-18T16:52:37;0.00;96.50
41926;DHT22;27615;51.826;5.692;2022-12-18T16:55:03;-0.10;96.50
41926;DHT22;27615;51.826;5.692;2022-12-18T16:57:28;0.00;96.60
41926;DHT22;27615;51.826;5.692;2022-12-18T16:59:54;0.00;96.70
41926;DHT22;27615;51.826;5.692;2022-12-18T17:02:24;-0.10;96.50
41926;DHT22;27615;51.826;5.692;2022-12-18T17:04:55;0.00;96.50
41926;DHT22;27615;51.826;5.692;2022-12-18T17:07:21;0.00;96.60
41926;DHT22;27615;51.826;5.692;2022-12-18T17:09:46;0.00;96.60
41926;DHT22;27615;51.826;5.692;2022-12-18T17:12:14;0.00;96.50
41926;DHT22;27615;51.826;5.692;2022-12-18T17:14:40;-0.10;96.50
41926;DHT22;27615;51.826;5.692;2022-12-18T17:17:05;0.00;96.60
41926;DHT22;27615;51.826;5.692;2022-12-18T17:19:32;0.00;96.80
41926;DHT22;27615;51.826;5.692;2022-12-18T17:21:57;-0.10;96.70
41926;DHT22;27615;51.826;5.692;2022-12-18T17:24:23;-0.10;96.60
41926;DHT22;27615;51.826;5.692;2022-12-18T17:26:48;0.00;96.60
41926;DHT22;27615;51.826;5.692;2022-12-18T17:29:16;-0.10;96.60